createdAt,value
2019-04-07T00:01:51.579Z,5.80
2019-04-07T00:04:21.783Z,5.80
2019-04-07T00:06:52.112Z,5.70
2019-04-07T00:09:22.341Z,5.70
2019-04-07T00:11:52.213Z,5.60
2019-04-07T00:14:22.126Z,5.60
2019-04-07T00:16:52.334Z,5.50
2019-04-07T00:19:23.167Z,5.40
2019-04-07T00:21:53.906Z,5.40
2019-04-07T00:24:24.637Z,5.40
2019-04-07T00:26:54.838Z,5.50
2019-04-07T00:29:24.754Z,5.70
2019-04-07T00:31:55.703Z,5.90
2019-04-07T00:34:25.671Z,5.80
2019-04-07T00:36:55.770Z,5.80
2019-04-07T00:39:25.944Z,5.60
2019-04-07T00:41:56.587Z,5.50
2019-04-07T00:44:26.885Z,5.50
2019-04-07T00:46:56.799Z,5.50
2019-04-07T00:49:26.951Z,5.50
2019-04-07T00:51:58.455Z,5.60
2019-04-07T00:54:28.408Z,5.60
2019-04-07T00:56:59.325Z,5.60
2019-04-07T00:59:29.711Z,5.70
2019-04-07T01:02:00.341Z,5.80
2019-04-07T01:04:30.699Z,5.90
2019-04-07T01:07:00.632Z,5.90
2019-04-07T01:09:31.066Z,5.90
2019-04-07T01:12:01.247Z,5.80
2019-04-07T01:14:31.466Z,5.80
2019-04-07T01:17:01.465Z,5.80
2019-04-07T01:19:31.866Z,5.90
2019-04-07T01:22:02.379Z,5.90
2019-04-07T01:24:33.049Z,5.90
2019-04-07T01:27:03.898Z,5.90
2019-04-07T01:29:34.217Z,5.80
2019-04-07T01:32:04.854Z,5.70
2019-04-07T01:34:35.181Z,5.50
2019-04-07T01:37:05.639Z,5.60
2019-04-07T01:39:35.514Z,5.50
2019-04-07T01:42:06.893Z,5.70
2019-04-07T01:44:47.338Z,5.60
2019-04-07T01:47:25.016Z,5.60
2019-04-07T01:50:03.090Z,5.60
2019-04-07T01:52:34.951Z,5.50
2019-04-07T01:55:14.639Z,5.40
2019-04-07T01:57:49.721Z,5.30
2019-04-07T02:00:24.924Z,5.40
2019-04-07T02:02:56.789Z,5.30
2019-04-07T02:05:31.432Z,5.50
2019-04-07T02:08:12.013Z,5.70
2019-04-07T02:10:46.976Z,5.70
2019-04-07T02:13:18.760Z,5.50
2019-04-07T02:15:50.377Z,5.40
2019-04-07T02:18:37.984Z,5.30
2019-04-07T02:21:09.714Z,5.30
2019-04-07T02:23:50.396Z,5.20
2019-04-07T02:26:22.377Z,5.30
2019-04-07T02:29:10.179Z,5.30
2019-04-07T02:31:42.272Z,5.20
2019-04-07T02:34:30.354Z,5.30
2019-04-07T02:37:14.282Z,5.50
2019-04-07T02:39:48.829Z,5.50
2019-04-07T02:42:23.488Z,5.40
2019-04-07T02:44:57.727Z,5.30
2019-04-07T02:47:41.827Z,5.10
2019-04-07T02:50:30.215Z,5.20
2019-04-07T02:53:05.599Z,5.40
2019-04-07T02:55:40.772Z,5.50
2019-04-07T02:58:25.452Z,5.50
2019-04-07T03:01:13.823Z,5.20
2019-04-07T03:04:02.961Z,5.00
2019-04-07T03:06:53.540Z,5.00
2019-04-07T03:09:32.263Z,5.00
2019-04-07T03:12:23.471Z,4.90
2019-04-07T03:15:04.553Z,4.90
2019-04-07T03:17:51.933Z,4.80
2019-04-07T03:20:25.041Z,4.80
2019-04-07T03:23:12.963Z,4.90
2019-04-07T03:25:48.536Z,5.00
2019-04-07T03:28:33.034Z,5.00
2019-04-07T03:31:15.330Z,5.10
2019-04-07T03:33:54.416Z,5.20
2019-04-07T03:37:01.435Z,5.20
2019-04-07T03:39:25.056Z,5.30
2019-04-07T03:42:09.126Z,5.50
2019-04-07T03:44:41.019Z,5.30
2019-04-07T03:47:12.785Z,5.00
2019-04-07T03:49:53.611Z,5.00
2019-04-07T03:52:28.747Z,5.10
2019-04-07T03:55:03.271Z,5.10
2019-04-07T03:57:37.213Z,5.20
2019-04-07T04:00:14.990Z,5.30
2019-04-07T04:02:52.687Z,5.20
2019-04-07T04:05:27.354Z,5.20
2019-04-07T04:07:59.040Z,5.30
2019-04-07T04:10:39.417Z,5.40
2019-04-07T04:13:20.222Z,5.30
2019-04-07T04:15:51.735Z,5.30
2019-04-07T04:18:22.544Z,5.20
2019-04-07T04:20:52.857Z,5.10
2019-04-07T04:23:23.278Z,5.10
2019-04-07T04:25:53.738Z,5.20
2019-04-07T04:28:24.261Z,5.20
2019-04-07T04:30:54.355Z,5.40
2019-04-07T04:33:24.386Z,5.50
2019-04-07T04:35:54.582Z,5.60
2019-04-07T04:38:24.493Z,5.50
2019-04-07T04:40:54.402Z,5.60
2019-04-07T04:43:24.333Z,5.70
2019-04-07T04:45:54.683Z,5.70
2019-04-07T04:48:25.863Z,5.70
2019-04-07T04:50:56.150Z,5.70
2019-04-07T04:53:26.873Z,5.70
2019-04-07T04:55:57.693Z,5.70
2019-04-07T04:58:28.844Z,5.60
2019-04-07T05:00:59.509Z,5.60
2019-04-07T05:03:29.423Z,5.70
2019-04-07T05:05:59.632Z,5.70
2019-04-07T05:08:29.821Z,5.80
2019-04-07T05:11:00.051Z,5.80
2019-04-07T05:13:30.606Z,5.70
2019-04-07T05:16:00.763Z,5.80
2019-04-07T05:18:30.870Z,5.80
2019-04-07T05:21:00.784Z,5.70
2019-04-07T05:23:31.747Z,5.80
2019-04-07T05:26:01.893Z,5.80
2019-04-07T05:28:36.768Z,5.90
2019-04-07T05:31:04.586Z,6.00
2019-04-07T05:33:34.573Z,6.10
2019-04-07T05:36:05.100Z,6.10
2019-04-07T05:38:35.697Z,6.00
2019-04-07T05:41:05.696Z,6.10
2019-04-07T05:43:35.824Z,6.20
2019-04-07T05:46:08.006Z,6.20
2019-04-07T05:48:38.323Z,6.20
2019-04-07T05:51:08.800Z,6.30
2019-04-07T05:53:39.895Z,6.40
2019-04-07T05:56:11.176Z,6.30
2019-04-07T05:58:42.633Z,6.20
2019-04-07T06:01:12.914Z,6.20
2019-04-07T06:03:43.666Z,6.00
2019-04-07T06:06:14.836Z,6.10
2019-04-07T06:08:48.327Z,6.10
2019-04-07T06:11:17.340Z,6.30
2019-04-07T06:13:48.728Z,6.40
2019-04-07T06:16:20.952Z,6.50
2019-04-07T06:18:51.120Z,6.50
2019-04-07T06:21:21.220Z,6.50
2019-04-07T06:23:55.395Z,6.60
2019-04-07T06:26:23.799Z,6.80
2019-04-07T06:28:58.074Z,7.00
2019-04-07T06:31:26.350Z,7.00
2019-04-07T06:33:57.925Z,6.80
2019-04-07T06:36:28.723Z,6.80
2019-04-07T06:38:59.391Z,7.00
2019-04-07T06:41:31.157Z,7.00
2019-04-07T06:44:10.112Z,6.90
2019-04-07T06:46:37.894Z,7.00
2019-04-07T06:49:11.706Z,7.10
2019-04-07T06:51:49.009Z,7.10
2019-04-07T06:54:35.611Z,7.10
2019-04-07T06:57:19.447Z,7.10
2019-04-07T06:59:54.017Z,7.20
2019-04-07T07:02:34.645Z,7.30
2019-04-07T07:05:12.655Z,7.40
2019-04-07T07:07:48.228Z,7.50
2019-04-07T07:10:34.787Z,7.60
2019-04-07T07:13:09.428Z,7.70
2019-04-07T07:15:44.916Z,7.80
2019-04-07T07:18:20.080Z,7.90
2019-04-07T07:21:03.877Z,8.00
2019-04-07T07:23:36.399Z,8.10
2019-04-07T07:26:08.119Z,8.20
2019-04-07T07:28:39.087Z,8.30
2019-04-07T07:31:10.082Z,8.40
2019-04-07T07:33:42.163Z,8.50
2019-04-07T07:36:12.249Z,8.60
2019-04-07T07:38:54.510Z,8.50
2019-04-07T07:41:17.206Z,8.50
2019-04-07T07:43:47.009Z,8.50
2019-04-07T07:46:20.402Z,8.60
2019-04-07T07:48:48.685Z,8.60
2019-04-07T07:51:18.893Z,8.60
2019-04-07T07:53:48.805Z,8.70
2019-04-07T07:56:18.915Z,8.70
2019-04-07T07:58:49.324Z,8.70
2019-04-07T08:01:19.527Z,8.70
2019-04-07T08:03:52.989Z,8.70
2019-04-07T08:06:23.055Z,8.80
2019-04-07T08:08:53.686Z,8.80
2019-04-07T08:11:24.097Z,8.90
2019-04-07T08:13:55.298Z,8.90
2019-04-07T08:16:29.358Z,8.90
2019-04-07T08:18:59.233Z,8.80
2019-04-07T08:21:29.123Z,8.80
2019-04-07T08:23:59.123Z,8.90
2019-04-07T08:26:29.936Z,8.90
2019-04-07T08:29:00.133Z,8.90
2019-04-07T08:31:30.421Z,8.80
2019-04-07T08:34:01.533Z,8.80
2019-04-07T08:36:32.657Z,8.90
2019-04-07T08:39:02.784Z,9.00
2019-04-07T08:41:33.458Z,8.90
2019-04-07T08:44:03.399Z,8.90
2019-04-07T08:46:39.714Z,8.80
2019-04-07T08:49:06.554Z,8.80
2019-04-07T08:51:36.536Z,8.70
2019-04-07T08:54:07.194Z,8.80
2019-04-07T08:56:37.678Z,8.80
2019-04-07T08:59:10.235Z,8.90
2019-04-07T09:01:39.275Z,8.90
2019-04-07T09:04:09.479Z,8.90
2019-04-07T09:06:39.679Z,9.00
2019-04-07T09:09:10.043Z,9.00
2019-04-07T09:11:41.595Z,8.90
2019-04-07T09:14:14.599Z,8.90
2019-04-07T09:17:02.303Z,8.90
2019-04-07T09:19:49.641Z,9.10
2019-04-07T09:22:34.774Z,9.10
2019-04-07T09:25:09.607Z,9.20
2019-04-07T09:27:49.513Z,9.60
2019-04-07T09:30:22.300Z,9.80
2019-04-07T09:32:53.669Z,10.00
2019-04-07T09:35:42.463Z,10.00
2019-04-07T09:38:14.379Z,10.10
2019-04-07T09:41:01.702Z,10.30
2019-04-07T09:43:50.735Z,10.50
2019-04-07T09:46:22.962Z,11.00
2019-04-07T09:48:58.707Z,10.90
2019-04-07T09:51:46.187Z,10.70
2019-04-07T09:54:28.301Z,11.00
2019-04-07T09:57:15.611Z,11.00
2019-04-07T09:59:50.874Z,10.90
2019-04-07T10:02:39.405Z,10.70
2019-04-07T10:05:11.896Z,10.90
2019-04-07T10:08:02.232Z,11.10
2019-04-07T10:10:40.328Z,11.20
2019-04-07T10:13:21.741Z,11.20
2019-04-07T10:15:56.385Z,11.20
2019-04-07T10:18:34.039Z,11.50
2019-04-07T10:21:06.593Z,11.60
2019-04-07T10:23:38.717Z,11.40
2019-04-07T10:26:27.000Z,11.50
2019-04-07T10:29:01.812Z,11.60
2019-04-07T10:31:33.840Z,11.60
2019-04-07T10:34:18.262Z,11.60
2019-04-07T10:36:52.992Z,11.60
2019-04-07T10:39:30.967Z,11.80
2019-04-07T10:42:05.462Z,12.00
2019-04-07T10:44:40.245Z,11.80
2019-04-07T10:47:14.768Z,11.90
2019-04-07T10:50:01.516Z,12.00
2019-04-07T10:52:28.846Z,12.20
2019-04-07T10:55:16.670Z,12.60
2019-04-07T10:57:54.817Z,12.60
2019-04-07T11:00:32.538Z,12.40
2019-04-07T11:03:16.403Z,12.40
2019-04-07T11:06:07.246Z,12.60
2019-04-07T11:08:54.048Z,12.90
2019-04-07T11:11:28.583Z,12.60
2019-04-07T11:14:06.845Z,12.70
2019-04-07T11:16:54.960Z,12.90
2019-04-07T11:19:29.517Z,12.90
2019-04-07T11:22:19.878Z,13.20
2019-04-07T11:25:01.101Z,13.10
2019-04-07T11:27:42.379Z,13.30
2019-04-07T11:30:23.502Z,13.60
2019-04-07T11:32:55.084Z,14.20
2019-04-07T11:35:30.779Z,14.90
2019-04-07T11:38:09.238Z,15.10
2019-04-07T11:40:49.606Z,14.60
2019-04-07T11:43:20.990Z,14.80
2019-04-07T11:46:02.846Z,14.00
2019-04-07T11:48:41.608Z,13.60
2019-04-07T11:51:19.523Z,13.30
2019-04-07T11:54:09.704Z,13.70
2019-04-07T11:56:41.608Z,13.70
2019-04-07T11:59:25.346Z,13.40
2019-04-07T12:02:09.121Z,14.00
2019-04-07T12:04:43.692Z,14.70
2019-04-07T12:07:27.440Z,15.20
2019-04-07T12:10:08.334Z,14.20
2019-04-07T12:12:52.678Z,13.80
2019-04-07T12:15:26.676Z,13.70
2019-04-07T12:18:11.759Z,13.50
2019-04-07T12:20:46.200Z,13.50
2019-04-07T12:23:34.348Z,13.40
2019-04-07T12:26:21.364Z,13.40
2019-04-07T12:28:56.094Z,13.60
2019-04-07T12:31:34.771Z,14.70
2019-04-07T12:34:09.455Z,15.20
2019-04-07T12:36:40.882Z,15.50
2019-04-07T12:39:19.079Z,15.80
2019-04-07T12:42:07.103Z,15.80
2019-04-07T12:44:45.255Z,16.20
2019-04-07T12:47:17.110Z,16.90
2019-04-07T12:49:49.008Z,16.00
2019-04-07T12:52:33.405Z,15.80
2019-04-07T12:55:17.831Z,16.00
2019-04-07T12:57:54.406Z,16.50
2019-04-07T13:00:52.303Z,16.40
2019-04-07T13:03:21.160Z,16.60
2019-04-07T13:05:59.238Z,16.10
2019-04-07T13:08:34.903Z,15.90
2019-04-07T13:11:11.217Z,15.60
2019-04-07T13:13:42.749Z,15.50
2019-04-07T13:16:24.970Z,15.30
2019-04-07T13:18:56.701Z,15.00
2019-04-07T13:21:34.498Z,15.00
2019-04-07T13:24:12.668Z,15.00
2019-04-07T13:26:48.834Z,14.60
2019-04-07T13:29:23.748Z,14.00
2019-04-07T13:32:12.188Z,12.70
2019-04-07T13:34:59.319Z,11.80
2019-04-07T13:37:41.618Z,11.90
2019-04-07T13:40:32.811Z,12.10
2019-04-07T13:43:21.146Z,12.10
2019-04-07T13:45:59.030Z,12.30
2019-04-07T13:48:36.707Z,12.50
2019-04-07T13:51:23.695Z,12.60
2019-04-07T13:54:12.377Z,12.70
2019-04-07T13:56:52.190Z,12.90
2019-04-07T13:59:27.268Z,13.00
2019-04-07T14:02:05.351Z,12.90
2019-04-07T14:04:46.783Z,12.80
2019-04-07T14:07:19.723Z,12.60
2019-04-07T14:10:01.428Z,12.30
2019-04-07T14:12:33.396Z,12.40
2019-04-07T14:15:10.509Z,12.30
2019-04-07T14:17:45.075Z,12.40
2019-04-07T14:20:21.529Z,12.40
2019-04-07T14:22:53.433Z,12.40
2019-04-07T14:25:25.627Z,12.50
2019-04-07T14:28:00.327Z,12.30
2019-04-07T14:30:44.463Z,12.20
2019-04-07T14:33:16.615Z,12.40
2019-04-07T14:35:48.901Z,12.40
2019-04-07T14:38:23.975Z,12.30
2019-04-07T14:40:56.512Z,12.40
2019-04-07T14:43:28.610Z,12.40
2019-04-07T14:46:04.399Z,12.60
2019-04-07T14:48:45.134Z,12.60
2019-04-07T14:51:32.951Z,12.70
2019-04-07T14:54:04.635Z,12.70
2019-04-07T14:56:43.216Z,12.50
2019-04-07T14:59:31.468Z,12.60
2019-04-07T15:02:02.062Z,12.70
2019-04-07T15:04:49.084Z,12.80
2019-04-07T15:07:21.575Z,12.40
2019-04-07T15:09:53.529Z,12.40
2019-04-07T15:12:26.623Z,13.10
2019-04-07T15:14:57.068Z,13.30
2019-04-07T15:17:27.263Z,13.90
2019-04-07T15:19:57.245Z,13.70
2019-04-07T15:22:29.927Z,13.80
2019-04-07T15:25:00.122Z,13.90
2019-04-07T15:27:30.230Z,14.30
2019-04-07T15:30:00.744Z,14.40
2019-04-07T15:32:31.341Z,14.40
2019-04-07T15:35:02.329Z,14.40
2019-04-07T15:37:33.602Z,14.50
2019-04-07T15:40:06.058Z,14.40
2019-04-07T15:42:42.794Z,14.30
2019-04-07T15:45:12.033Z,14.30
2019-04-07T15:47:42.493Z,14.60
2019-04-07T15:50:13.863Z,14.30
2019-04-07T15:52:46.056Z,14.00
2019-04-07T15:55:15.596Z,13.80
2019-04-07T15:57:45.509Z,14.00
2019-04-07T16:00:16.896Z,14.20
2019-04-07T16:02:49.302Z,14.60
2019-04-07T16:05:18.793Z,15.00
2019-04-07T16:07:51.303Z,14.80
2019-04-07T16:10:22.830Z,14.30
2019-04-07T16:12:54.360Z,14.10
2019-04-07T16:15:25.076Z,14.00
2019-04-07T16:17:55.610Z,14.00
2019-04-07T16:20:31.541Z,14.40
2019-04-07T16:22:57.567Z,14.60
2019-04-07T16:25:29.001Z,14.60
2019-04-07T16:27:59.510Z,14.70
2019-04-07T16:30:30.448Z,14.80
2019-04-07T16:33:03.813Z,14.70
2019-04-07T16:35:32.440Z,14.70
2019-04-07T16:38:02.933Z,14.80
2019-04-07T16:40:33.898Z,14.70
2019-04-07T16:43:11.641Z,14.60
2019-04-07T16:45:36.734Z,14.70
2019-04-07T16:48:07.762Z,14.60
2019-04-07T16:50:38.217Z,14.60
2019-04-07T16:53:09.231Z,14.60
2019-04-07T16:55:46.586Z,14.70
2019-04-07T16:58:15.863Z,14.60
2019-04-07T17:00:47.376Z,14.60
2019-04-07T17:03:17.861Z,14.50
2019-04-07T17:05:47.870Z,14.60
2019-04-07T17:08:21.117Z,14.50
2019-04-07T17:10:50.702Z,14.50
2019-04-07T17:13:31.461Z,14.40
2019-04-07T17:15:53.233Z,14.40
2019-04-07T17:18:44.088Z,14.40
2019-04-07T17:21:18.335Z,14.40
2019-04-07T17:23:53.180Z,14.30
2019-04-07T17:26:23.547Z,14.20
2019-04-07T17:28:53.114Z,14.20
2019-04-07T17:31:24.046Z,14.10
2019-04-07T17:33:54.079Z,13.90
2019-04-07T17:36:25.237Z,13.80
2019-04-07T17:39:09.765Z,13.70
2019-04-07T17:41:40.135Z,13.60
2019-04-07T17:44:28.626Z,13.50
2019-04-07T17:47:06.603Z,13.40
2019-04-07T17:49:41.008Z,13.30
2019-04-07T17:52:31.607Z,13.20
2019-04-07T17:55:15.509Z,13.20
2019-04-07T17:58:07.219Z,13.10
2019-04-07T18:00:37.399Z,13.00
2019-04-07T18:03:21.592Z,12.90
2019-04-07T18:06:10.058Z,12.90
2019-04-07T18:08:48.584Z,12.80
2019-04-07T18:11:35.302Z,12.70
2019-04-07T18:14:11.516Z,12.60
2019-04-07T18:17:00.314Z,12.60
2019-04-07T18:19:35.253Z,12.50
2019-04-07T18:22:10.635Z,12.50
2019-04-07T18:24:51.311Z,12.40
2019-04-07T18:27:25.963Z,12.30
2019-04-07T18:30:00.738Z,12.20
2019-04-07T18:32:46.797Z,12.10
2019-04-07T18:35:30.790Z,12.10
2019-04-07T18:38:19.504Z,12.10
2019-04-07T18:41:10.474Z,12.00
2019-04-07T18:43:49.845Z,11.90
2019-04-07T18:46:28.447Z,11.90
2019-04-07T18:49:03.267Z,11.80
2019-04-07T18:51:47.238Z,11.70
2019-04-07T18:54:15.981Z,11.60
2019-04-07T18:56:48.055Z,11.60
2019-04-07T18:59:25.859Z,11.40
2019-04-07T19:02:04.389Z,11.40
2019-04-07T19:04:42.079Z,11.50
2019-04-07T19:07:16.702Z,11.40
2019-04-07T19:10:10.517Z,11.40
2019-04-07T19:13:01.945Z,11.30
2019-04-07T19:15:27.620Z,11.10
2019-04-07T19:18:05.899Z,11.00
2019-04-07T19:20:53.549Z,10.90
2019-04-07T19:23:41.515Z,10.80
2019-04-07T19:26:17.390Z,10.90
2019-04-07T19:28:50.196Z,10.90
2019-04-07T19:31:38.347Z,10.90
2019-04-07T19:34:29.437Z,10.90
2019-04-07T19:37:17.952Z,10.80
2019-04-07T19:40:04.658Z,10.60
2019-04-07T19:42:39.930Z,10.60
2019-04-07T19:45:22.188Z,10.40
2019-04-07T19:47:54.870Z,10.40
2019-04-07T19:50:43.040Z,10.40
2019-04-07T19:53:32.542Z,10.30
2019-04-07T19:56:10.194Z,10.20
2019-04-07T19:58:51.401Z,10.20
2019-04-07T20:01:38.328Z,10.30
2019-04-07T20:04:10.979Z,10.30
2019-04-07T20:06:44.081Z,10.30
2019-04-07T20:09:21.833Z,10.30
2019-04-07T20:11:56.279Z,10.30
2019-04-07T20:14:49.298Z,10.30
2019-04-07T20:17:34.447Z,10.20
2019-04-07T20:20:20.075Z,10.10
2019-04-07T20:23:04.378Z,10.00
2019-04-07T20:25:52.764Z,10.10
2019-04-07T20:28:32.459Z,10.00
2019-04-07T20:31:06.579Z,10.00
2019-04-07T20:33:54.525Z,10.00
2019-04-07T20:36:31.804Z,10.00
2019-04-07T20:39:21.694Z,9.90
2019-04-07T20:42:11.417Z,9.90
2019-04-07T20:44:42.650Z,9.80
2019-04-07T20:47:14.318Z,9.90
2019-04-07T20:49:48.134Z,9.90
2019-04-07T20:52:22.239Z,9.80
2019-04-07T20:54:52.315Z,9.70
2019-04-07T20:57:25.297Z,9.60
2019-04-07T21:00:14.350Z,9.60
2019-04-07T21:02:45.942Z,9.70
2019-04-07T21:05:17.527Z,9.50
2019-04-07T21:08:06.186Z,9.60
2019-04-07T21:10:47.238Z,9.60
2019-04-07T21:13:19.374Z,9.50
2019-04-07T21:16:08.200Z,9.30
2019-04-07T21:18:55.021Z,9.30
2019-04-07T21:21:44.567Z,9.20
2019-04-07T21:24:27.977Z,9.10
2019-04-07T21:27:02.557Z,9.00
2019-04-07T21:29:34.483Z,8.90
2019-04-07T21:32:09.486Z,8.90
2019-04-07T21:34:51.633Z,8.90
2019-04-07T21:37:23.350Z,8.90
2019-04-07T21:39:55.680Z,8.90
2019-04-07T21:42:27.723Z,9.00
2019-04-07T21:45:05.813Z,8.90
2019-04-07T21:47:38.583Z,9.00
2019-04-07T21:50:12.329Z,9.00
2019-04-07T21:52:43.817Z,8.90
2019-04-07T21:55:31.230Z,8.70
2019-04-07T21:58:21.849Z,8.50
2019-04-07T22:01:05.933Z,8.50
2019-04-07T22:03:47.832Z,8.60
2019-04-07T22:06:31.117Z,8.60
2019-04-07T22:09:23.132Z,8.70
2019-04-07T22:11:54.681Z,8.40
2019-04-07T22:14:24.865Z,8.40
2019-04-07T22:16:54.806Z,8.50
2019-04-07T22:19:24.698Z,8.40
2019-04-07T22:21:56.718Z,8.30
2019-04-07T22:24:26.397Z,8.20
2019-04-07T22:26:57.166Z,8.30
2019-04-07T22:29:27.394Z,8.30
2019-04-07T22:31:59.803Z,8.50
2019-04-07T22:34:32.778Z,8.50
2019-04-07T22:37:02.615Z,8.30
2019-04-07T22:39:33.351Z,8.20
2019-04-07T22:42:03.549Z,8.20
2019-04-07T22:44:33.603Z,8.00
2019-04-07T22:47:03.767Z,7.90
2019-04-07T22:49:33.681Z,7.90
2019-04-07T22:52:03.696Z,7.90
2019-04-07T22:54:34.840Z,7.80
2019-04-07T22:57:08.163Z,7.80
2019-04-07T22:59:37.659Z,7.80
2019-04-07T23:02:07.869Z,7.80
2019-04-07T23:04:38.488Z,7.80
2019-04-07T23:07:08.745Z,7.80
2019-04-07T23:09:39.062Z,7.80
2019-04-07T23:12:09.190Z,7.90
2019-04-07T23:14:38.986Z,7.80
2019-04-07T23:17:09.891Z,7.70
2019-04-07T23:19:40.110Z,7.90
2019-04-07T23:22:10.023Z,8.00
2019-04-07T23:24:40.036Z,7.90
2019-04-07T23:27:10.438Z,7.70
2019-04-07T23:29:40.452Z,7.60
2019-04-07T23:32:11.675Z,7.60
2019-04-07T23:34:41.853Z,7.50
2019-04-07T23:37:12.648Z,7.60
2019-04-07T23:39:42.858Z,7.70
2019-04-07T23:42:12.772Z,7.90
2019-04-07T23:44:43.669Z,7.90
2019-04-07T23:47:13.876Z,7.90
2019-04-07T23:49:44.741Z,8.00
2019-04-07T23:52:14.686Z,7.80
2019-04-07T23:54:44.599Z,7.70
2019-04-07T23:57:15.393Z,7.80
2019-04-07T23:59:47.027Z,7.80
